Time;durP1;ratioP1;P1;durP2;ratioP2;P2;SDS_P1;SDS_P2;PMS_P1;PMS_P2;Temp;Humidity;BMP_temperature;BMP_pressure;BME280_temperature;BME280_humidity;BME280_pressure;Samples;Min_cycle;Max_cycle;Signal;HPM_P1;HPM_P2
2023/03/11 00:00:17;;;;;;;269.23;95.18;;;;;;;;;;4996800;28;20272;-42
2023/03/11 00:03:06;;;;;;;194.45;71.20;;;;;;;;;;4996599;28;20229;-41
2023/03/11 00:05:40;;;;;;;162.75;64.20;;;;;;;;;;4996821;28;20202;-42
2023/03/11 00:08:09;;;;;;;196.00;78.38;;;;;;;;;;4996501;28;20430;-42
2023/03/11 00:10:39;;;;;;;172.70;70.22;;;;;;;;;;4995855;28;20202;-42
2023/03/11 00:13:07;;;;;;;117.38;48.55;;;;;;;;;;4996269;28;20202;-41
2023/03/11 00:15:35;;;;;;;100.80;44.42;;;;;;;;;;4996336;28;20213;-41
2023/03/11 00:18:02;;;;;;;97.68;42.15;;;;;;;;;;4996305;28;20237;-41
2023/03/11 00:20:32;;;;;;;73.30;32.95;;;;;;;;;;4996191;28;20645;-41
2023/03/11 00:23:00;;;;;;;80.60;36.30;;;;;;;;;;4996372;28;20202;-42
2023/03/11 00:25:30;;;;;;;89.88;48.50;;;;;;;;;;4996127;28;20242;-41
2023/03/11 00:27:58;;;;;;;80.88;44.00;;;;;;;;;;4996391;28;20206;-41
2023/03/11 00:30:26;;;;;;;49.78;26.15;;;;;;;;;;4996226;28;20213;-41
2023/03/11 00:32:55;;;;;;;34.75;20.30;;;;;;;;;;4996203;28;20210;-41
2023/03/11 00:35:25;;;;;;;71.32;29.38;;;;;;;;;;4996359;28;20229;-41
2023/03/11 00:37:55;;;;;;;66.30;31.35;;;;;;;;;;4995198;28;20340;-41
2023/03/11 00:40:23;;;;;;;34.80;19.20;;;;;;;;;;4996208;28;20277;-41
2023/03/11 00:42:51;;;;;;;33.00;17.70;;;;;;;;;;4996036;28;20202;-42
2023/03/11 00:45:19;;;;;;;30.25;16.92;;;;;;;;;;4994881;28;20223;-41
2023/03/11 00:47:46;;;;;;;50.28;25.63;;;;;;;;;;4995672;28;20210;-41
2023/03/11 00:50:19;;;;;;;20.80;13.10;;;;;;;;;;4996020;28;20202;-42
2023/03/11 00:52:47;;;;;;;20.92;12.25;;;;;;;;;;4995160;28;20217;-41
2023/03/11 00:55:19;;;;;;;36.83;19.33;;;;;;;;;;4995711;28;20210;-41
2023/03/11 00:57:46;;;;;;;54.33;26.17;;;;;;;;;;4995529;28;20313;-41
2023/03/11 01:00:16;;;;;;;34.03;18.17;;;;;;;;;;4995188;28;20276;-41
2023/03/11 01:02:43;;;;;;;18.63;11.07;;;;;;;;;;4995786;28;20740;-41
2023/03/11 01:05:12;;;;;;;16.40;11.45;;;;;;;;;;4994620;28;20198;-41
2023/03/11 01:07:39;;;;;;;20.90;12.85;;;;;;;;;;4994767;28;20648;-41
2023/03/11 01:10:08;;;;;;;18.65;11.23;;;;;;;;;;4995579;28;20209;-42
2023/03/11 01:12:35;;;;;;;19.65;13.10;;;;;;;;;;4994567;28;20206;-43
2023/03/11 01:15:03;;;;;;;32.13;17.08;;;;;;;;;;4995659;28;20206;-42
2023/03/11 01:17:31;;;;;;;31.15;18.38;;;;;;;;;;4994168;28;20533;-41
2023/03/11 01:19:58;;;;;;;42.67;19.42;;;;;;;;;;4994740;28;20210;-42
2023/03/11 01:22:25;;;;;;;34.22;21.58;;;;;;;;;;4994304;28;20676;-42
2023/03/11 01:24:53;;;;;;;31.08;18.30;;;;;;;;;;4994326;28;20210;-41
2023/03/11 01:27:20;;;;;;;33.95;22.38;;;;;;;;;;4994669;28;20202;-43
2023/03/11 01:29:47;;;;;;;49.22;31.55;;;;;;;;;;4995038;28;20209;-41
2023/03/11 01:32:14;;;;;;;27.98;18.38;;;;;;;;;;4995361;28;20218;-41
2023/03/11 01:34:42;;;;;;;29.95;20.02;;;;;;;;;;4995391;28;20206;-41
2023/03/11 01:37:09;;;;;;;28.60;17.17;;;;;;;;;;4994316;28;20212;-42
2023/03/11 01:39:36;;;;;;;29.23;16.35;;;;;;;;;;4978835;28;20268;-41
2023/03/11 01:42:04;;;;;;;28.30;17.60;;;;;;;;;;4988814;28;20630;-41
2023/03/11 01:44:31;;;;;;;25.92;16.55;;;;;;;;;;4981232;28;20210;-41
2023/03/11 01:47:00;;;;;;;37.00;20.30;;;;;;;;;;4990890;28;20679;-41
2023/03/11 01:49:34;;;;;;;64.75;28.92;;;;;;;;;;4974943;28;20579;-41
2023/03/11 01:52:06;;;;;;;29.30;19.52;;;;;;;;;;4975565;28;20241;-41
2023/03/11 01:54:40;;;;;;;42.35;23.10;;;;;;;;;;4990867;28;20637;-41
2023/03/11 01:57:11;;;;;;;128.88;59.45;;;;;;;;;;4974749;28;20206;-41
2023/03/11 01:59:44;;;;;;;145.70;73.70;;;;;;;;;;4974885;28;20592;-42
2023/03/11 02:02:19;;;;;;;53.15;26.92;;;;;;;;;;4959070;28;20254;-41
2023/03/11 02:04:47;;;;;;;41.83;24.13;;;;;;;;;;4974982;28;20618;-41
2023/03/11 02:07:15;;;;;;;43.92;24.60;;;;;;;;;;4959458;28;20207;-41
2023/03/11 02:09:44;;;;;;;140.65;47.05;;;;;;;;;;4990884;28;20218;-42
2023/03/11 02:12:13;;;;;;;132.05;43.03;;;;;;;;;;4974718;28;20207;-43
2023/03/11 02:14:45;;;;;;;143.95;41.63;;;;;;;;;;4990775;28;20215;-41
2023/03/11 02:17:12;;;;;;;234.55;62.70;;;;;;;;;;4990537;28;20211;-41
2023/03/11 02:19:59;;;;;;;104.97;36.40;;;;;;;;;;4974666;28;20239;-42
2023/03/11 02:22:32;;;;;;;163.70;55.13;;;;;;;;;;5006947;28;20194;-41
2023/03/11 02:25:30;;;;;;;142.00;49.63;;;;;;;;;;5007036;28;20260;-41
2023/03/11 02:27:58;;;;;;;339.38;132.77;;;;;;;;;;4976487;28;20210;-41
2023/03/11 02:30:28;;;;;;;237.80;102.80;;;;;;;;;;4962606;28;20206;-41
2023/03/11 02:32:55;;;;;;;148.65;58.60;;;;;;;;;;5010833;28;20213;-42
2023/03/11 02:35:24;;;;;;;98.25;40.97;;;;;;;;;;4977747;28;20211;-42
2023/03/11 02:37:53;;;;;;;54.58;27.05;;;;;;;;;;4962337;28;20312;-41
2023/03/11 02:40:21;;;;;;;68.32;30.13;;;;;;;;;;4977712;28;20653;-41
2023/03/11 02:43:05;;;;;;;52.10;24.58;;;;;;;;;;4977948;28;20203;-41
2023/03/11 02:45:33;;;;;;;48.92;23.65;;;;;;;;;;4962220;28;20206;-41
2023/03/11 02:48:00;;;;;;;76.88;33.25;;;;;;;;;;4977645;28;20217;-41
2023/03/11 02:50:30;;;;;;;64.68;31.08;;;;;;;;;;4977806;28;20217;-41
2023/03/11 02:52:57;;;;;;;56.08;28.45;;;;;;;;;;4978536;28;20598;-41
2023/03/11 02:55:24;;;;;;;52.78;24.98;;;;;;;;;;4993956;28;20217;-41
2023/03/11 02:57:51;;;;;;;47.20;24.55;;;;;;;;;;4978209;28;20700;-41
2023/03/11 03:00:20;;;;;;;68.18;33.97;;;;;;;;;;4977324;28;20537;-41
2023/03/11 03:02:54;;;;;;;98.07;56.47;;;;;;;;;;4978135;28;20234;-41
2023/03/11 03:05:22;;;;;;;36.08;20.45;;;;;;;;;;5009920;28;20207;-41
2023/03/11 03:07:50;;;;;;;32.33;19.75;;;;;;;;;;4977520;28;20211;-41
2023/03/11 03:10:20;;;;;;;31.15;19.05;;;;;;;;;;4978596;28;20214;-41
2023/03/11 03:12:47;;;;;;;29.33;18.13;;;;;;;;;;4993585;28;20198;-42
2023/03/11 03:15:15;;;;;;;34.30;18.73;;;;;;;;;;4977354;28;20646;-41
2023/03/11 03:17:43;;;;;;;25.98;15.88;;;;;;;;;;4976962;28;20217;-41
2023/03/11 03:20:12;;;;;;;26.20;16.38;;;;;;;;;;4977514;28;20579;-41
2023/03/11 03:22:44;;;;;;;50.38;24.10;;;;;;;;;;4962046;28;20211;-41
2023/03/11 03:25:14;;;;;;;24.20;15.68;;;;;;;;;;5009610;28;20229;-42
2023/03/11 03:27:41;;;;;;;29.25;16.85;;;;;;;;;;4993020;28;20218;-41
2023/03/11 03:30:10;;;;;;;31.35;16.67;;;;;;;;;;4977899;28;20606;-41
2023/03/11 03:32:38;;;;;;;42.90;25.13;;;;;;;;;;4995749;28;20284;-41
2023/03/11 03:35:10;;;;;;;45.13;25.63;;;;;;;;;;4980536;28;20226;-41
2023/03/11 03:37:53;;;;;;;39.70;21.38;;;;;;;;;;4993036;28;20203;-41
2023/03/11 03:40:21;;;;;;;32.38;20.00;;;;;;;;;;4976310;28;20657;-41
2023/03/11 03:42:50;;;;;;;35.30;20.95;;;;;;;;;;4961106;28;20226;-41
2023/03/11 03:45:18;;;;;;;34.72;20.73;;;;;;;;;;4976839;28;20203;-41
2023/03/11 03:47:46;;;;;;;43.08;23.08;;;;;;;;;;4992784;28;20626;-41
2023/03/11 03:50:13;;;;;;;35.00;19.15;;;;;;;;;;4976687;28;20222;-41
2023/03/11 03:52:44;;;;;;;26.77;17.27;;;;;;;;;;4993216;28;20211;-41
2023/03/11 03:55:11;;;;;;;32.92;19.00;;;;;;;;;;4992532;28;20203;-41
2023/03/11 03:57:39;;;;;;;32.13;19.25;;;;;;;;;;4992508;28;20218;-41
2023/03/11 04:00:10;;;;;;;47.10;23.05;;;;;;;;;;5008692;28;20234;-41
2023/03/11 04:02:40;;;;;;;35.90;20.13;;;;;;;;;;4977607;28;20233;-41
2023/03/11 04:05:17;;;;;;;53.15;28.08;;;;;;;;;;4977198;28;20296;-41
2023/03/11 04:07:45;;;;;;;148.50;76.53;;;;;;;;;;4992332;28;20645;-41
2023/03/11 04:10:13;;;;;;;50.63;27.08;;;;;;;;;;5008850;28;20210;-41
2023/03/11 04:12:42;;;;;;;38.25;21.67;;;;;;;;;;4977287;28;20262;-41
2023/03/11 04:15:10;;;;;;;37.75;21.80;;;;;;;;;;4995811;28;20209;-41
2023/03/11 04:17:39;;;;;;;28.08;18.33;;;;;;;;;;4995499;28;20210;-42
2023/03/11 04:20:09;;;;;;;33.40;19.00;;;;;;;;;;4995216;28;20661;-41
2023/03/11 04:22:36;;;;;;;35.35;19.23;;;;;;;;;;4996224;28;20293;-42
2023/03/11 04:25:05;;;;;;;24.42;17.58;;;;;;;;;;4996757;28;20532;-44
2023/03/11 04:27:32;;;;;;;34.30;18.60;;;;;;;;;;4989263;28;20194;-42
2023/03/11 04:30:02;;;;;;;51.33;27.17;;;;;;;;;;4984861;28;20202;-43
2023/03/11 04:32:31;;;;;;;27.88;18.02;;;;;;;;;;5007382;28;20201;-44
2023/03/11 04:34:58;;;;;;;27.77;17.70;;;;;;;;;;4990205;28;20210;-42
2023/03/11 04:37:27;;;;;;;72.20;34.70;;;;;;;;;;4993695;28;20213;-42
2023/03/11 04:39:55;;;;;;;51.63;31.92;;;;;;;;;;4995262;28;20240;-42
2023/03/11 04:42:23;;;;;;;49.05;27.20;;;;;;;;;;4985626;28;20195;-41
2023/03/11 04:44:52;;;;;;;34.15;21.77;;;;;;;;;;4984176;28;20213;-43
2023/03/11 04:47:20;;;;;;;25.70;17.85;;;;;;;;;;4984786;28;20265;-43
2023/03/11 04:49:48;;;;;;;27.60;17.77;;;;;;;;;;4986055;28;20206;-43
2023/03/11 04:52:15;;;;;;;27.58;18.08;;;;;;;;;;4983163;28;20194;-41
2023/03/11 04:54:43;;;;;;;30.05;18.67;;;;;;;;;;4984749;28;20190;-44
2023/03/11 04:57:10;;;;;;;31.23;19.33;;;;;;;;;;4982626;28;20217;-42
2023/03/11 04:59:41;;;;;;;34.85;21.15;;;;;;;;;;5016770;28;20704;-43
2023/03/11 05:02:10;;;;;;;57.80;31.05;;;;;;;;;;4980724;28;20271;-42
2023/03/11 05:04:45;;;;;;;33.40;21.80;;;;;;;;;;4982511;28;20268;-43
2023/03/11 05:07:15;;;;;;;38.28;22.50;;;;;;;;;;4983341;28;20692;-44
2023/03/11 05:09:42;;;;;;;42.85;24.88;;;;;;;;;;4984267;28;20531;-44
2023/03/11 05:12:11;;;;;;;54.38;31.00;;;;;;;;;;4982861;28;20210;-42
2023/03/11 05:14:40;;;;;;;74.35;41.70;;;;;;;;;;4983739;28;20197;-42
2023/03/11 05:17:09;;;;;;;51.20;29.77;;;;;;;;;;4984264;28;20201;-43
2023/03/11 05:19:37;;;;;;;46.50;28.35;;;;;;;;;;4984310;28;20554;-43
2023/03/11 05:22:12;;;;;;;45.35;26.67;;;;;;;;;;4984827;28;20527;-41
2023/03/11 05:24:40;;;;;;;49.15;28.88;;;;;;;;;;4982518;28;20206;-43
2023/03/11 05:27:08;;;;;;;46.42;27.92;;;;;;;;;;4988351;28;20198;-42
2023/03/11 05:29:37;;;;;;;49.63;28.25;;;;;;;;;;4983632;28;20199;-42
2023/03/11 05:32:07;;;;;;;49.13;28.38;;;;;;;;;;4982398;28;20253;-44
2023/03/11 05:34:34;;;;;;;58.63;32.53;;;;;;;;;;5015784;28;20198;-44
2023/03/11 05:37:02;;;;;;;45.97;26.20;;;;;;;;;;4984558;28;20240;-42
2023/03/11 05:39:31;;;;;;;44.67;25.85;;;;;;;;;;5015290;28;20557;-42
2023/03/11 05:41:58;;;;;;;48.38;26.58;;;;;;;;;;4982830;28;20194;-42
2023/03/11 05:44:26;;;;;;;56.50;30.00;;;;;;;;;;4984205;28;20197;-42
2023/03/11 05:46:55;;;;;;;63.00;35.28;;;;;;;;;;4983578;28;20205;-42
2023/03/11 05:49:22;;;;;;;52.42;28.67;;;;;;;;;;4983226;28;20214;-42
2023/03/11 05:51:53;;;;;;;47.75;28.17;;;;;;;;;;4983423;28;20520;-42
2023/03/11 05:54:24;;;;;;;46.63;27.63;;;;;;;;;;4996368;28;20198;-44
2023/03/11 05:56:52;;;;;;;59.45;33.15;;;;;;;;;;4995168;28;20297;-44
2023/03/11 05:59:19;;;;;;;87.90;49.45;;;;;;;;;;4995648;28;20242;-41
2023/03/11 06:01:53;;;;;;;54.75;31.73;;;;;;;;;;4992343;28;20234;-42
2023/03/11 06:04:21;;;;;;;54.35;30.35;;;;;;;;;;4997130;28;20237;-41
2023/03/11 06:06:49;;;;;;;47.40;28.30;;;;;;;;;;4996092;28;20222;-43
2023/03/11 06:09:19;;;;;;;51.67;29.98;;;;;;;;;;4996075;28;20229;-41
2023/03/11 06:11:46;;;;;;;52.40;32.50;;;;;;;;;;5007443;28;20257;-41
2023/03/11 06:14:16;;;;;;;115.82;67.95;;;;;;;;;;4996151;28;20226;-43
2023/03/11 06:16:47;;;;;;;70.60;44.58;;;;;;;;;;4996255;28;20377;-44
2023/03/11 06:19:14;;;;;;;71.88;48.10;;;;;;;;;;4995929;28;20238;-42
2023/03/11 06:21:46;;;;;;;68.85;44.25;;;;;;;;;;4995991;28;20245;-46
2023/03/11 06:24:16;;;;;;;101.15;54.50;;;;;;;;;;4996100;28;20229;-42
2023/03/11 06:26:44;;;;;;;70.80;40.22;;;;;;;;;;4995589;28;20234;-40
2023/03/11 06:29:14;;;;;;;62.90;32.97;;;;;;;;;;4995622;28;20230;-41
2023/03/11 06:31:42;;;;;;;50.00;29.23;;;;;;;;;;5001790;28;20213;-41
2023/03/11 06:34:12;;;;;;;48.40;29.60;;;;;;;;;;5007580;28;20541;-41
2023/03/11 06:36:39;;;;;;;48.30;29.33;;;;;;;;;;5015371;28;20599;-41
2023/03/11 06:39:06;;;;;;;51.30;28.23;;;;;;;;;;5025144;28;20241;-41
2023/03/11 06:41:35;;;;;;;48.95;30.73;;;;;;;;;;4999031;28;20327;-40
2023/03/11 06:44:05;;;;;;;62.13;35.25;;;;;;;;;;4995382;28;20230;-41
2023/03/11 06:46:34;;;;;;;56.08;33.10;;;;;;;;;;4995517;28;20222;-40
2023/03/11 06:49:02;;;;;;;53.03;30.35;;;;;;;;;;4995012;28;20233;-41
2023/03/11 06:51:30;;;;;;;48.97;31.75;;;;;;;;;;4996398;28;20731;-41
2023/03/11 06:53:57;;;;;;;51.03;31.02;;;;;;;;;;4995260;28;20249;-41
2023/03/11 06:56:26;;;;;;;42.92;28.33;;;;;;;;;;4995256;28;20229;-41
2023/03/11 06:58:58;;;;;;;96.43;51.92;;;;;;;;;;4994952;28;20237;-41
2023/03/11 07:01:29;;;;;;;65.80;40.97;;;;;;;;;;4995918;28;20238;-41
2023/03/11 07:03:59;;;;;;;71.50;38.50;;;;;;;;;;4994906;28;20615;-43
2023/03/11 07:06:27;;;;;;;55.63;30.85;;;;;;;;;;4995151;28;20316;-45
2023/03/11 07:09:06;;;;;;;49.97;27.85;;;;;;;;;;4995023;28;20234;-44
2023/03/11 07:11:37;;;;;;;43.90;27.38;;;;;;;;;;4995432;28;20668;-42
2023/03/11 07:14:11;;;;;;;47.85;28.20;;;;;;;;;;4995195;28;20244;-42
2023/03/11 07:16:43;;;;;;;50.83;28.50;;;;;;;;;;4995783;28;20308;-43
2023/03/11 07:19:27;;;;;;;42.20;26.42;;;;;;;;;;4975795;28;20226;-41
2023/03/11 07:21:54;;;;;;;47.15;27.65;;;;;;;;;;4976974;28;20226;-43
2023/03/11 07:24:21;;;;;;;41.75;25.27;;;;;;;;;;4976879;28;20234;-41
2023/03/11 07:26:48;;;;;;;65.45;41.92;;;;;;;;;;4976484;28;20551;-44
2023/03/11 07:29:16;;;;;;;39.78;27.13;;;;;;;;;;4993889;28;20308;-42
2023/03/11 07:31:43;;;;;;;43.80;27.60;;;;;;;;;;5011392;28;20249;-41
2023/03/11 07:34:11;;;;;;;48.15;27.33;;;;;;;;;;5015950;28;20348;-42
2023/03/11 07:36:40;;;;;;;60.45;34.33;;;;;;;;;;5016143;28;20296;-42
2023/03/11 07:39:13;;;;;;;57.03;35.28;;;;;;;;;;5013372;28;20580;-42
2023/03/11 07:41:41;;;;;;;39.42;24.45;;;;;;;;;;4995799;28;20238;-43
2023/03/11 07:44:11;;;;;;;28.27;19.30;;;;;;;;;;4976490;28;20554;-42
2023/03/11 07:46:38;;;;;;;25.27;16.50;;;;;;;;;;5007543;28;20236;-42
2023/03/11 07:49:06;;;;;;;27.70;17.45;;;;;;;;;;5007927;28;20225;-42
2023/03/11 07:51:35;;;;;;;26.63;16.60;;;;;;;;;;5001066;28;20229;-43
2023/03/11 07:54:03;;;;;;;23.10;15.75;;;;;;;;;;4992300;28;20222;-44
2023/03/11 07:56:32;;;;;;;25.38;16.88;;;;;;;;;;4995382;28;20244;-41
2023/03/11 07:59:01;;;;;;;32.30;18.58;;;;;;;;;;4995363;28;20238;-41
2023/03/11 08:01:34;;;;;;;27.10;17.55;;;;;;;;;;4995860;28;20272;-41
2023/03/11 08:04:05;;;;;;;22.73;16.17;;;;;;;;;;4995691;28;20668;-42
2023/03/11 08:06:33;;;;;;;26.45;17.00;;;;;;;;;;4995567;28;20288;-43
2023/03/11 08:09:04;;;;;;;31.10;17.63;;;;;;;;;;4995606;28;20238;-42
2023/03/11 08:11:31;;;;;;;53.88;28.55;;;;;;;;;;4995162;28;20681;-42
2023/03/11 08:13:59;;;;;;;52.20;31.13;;;;;;;;;;4980380;28;20268;-45
2023/03/11 08:16:27;;;;;;;38.95;23.63;;;;;;;;;;4976004;28;20227;-42
2023/03/11 08:18:55;;;;;;;28.75;20.30;;;;;;;;;;4983919;28;20222;-44
2023/03/11 08:21:27;;;;;;;24.02;16.05;;;;;;;;;;4997801;28;20225;-42
2023/03/11 08:23:59;;;;;;;28.05;17.60;;;;;;;;;;5014496;28;20221;-44
2023/03/11 08:26:27;;;;;;;27.17;17.17;;;;;;;;;;5013309;28;20228;-44
2023/03/11 08:28:55;;;;;;;29.05;18.33;;;;;;;;;;5004507;28;20244;-44
2023/03/11 08:31:28;;;;;;;29.73;20.17;;;;;;;;;;5002828;28;20218;-44
2023/03/11 08:33:59;;;;;;;33.15;19.98;;;;;;;;;;4996031;28;20195;-44
2023/03/11 08:36:27;;;;;;;31.80;20.20;;;;;;;;;;4976518;28;20567;-44
2023/03/11 08:38:54;;;;;;;34.55;20.27;;;;;;;;;;4975895;28;20230;-44
2023/03/11 08:41:22;;;;;;;36.75;21.27;;;;;;;;;;4976031;28;20354;-43
2023/03/11 08:43:51;;;;;;;41.35;22.08;;;;;;;;;;4986358;28;20214;-45
2023/03/11 08:46:36;;;;;;;66.40;42.22;;;;;;;;;;4983406;28;20183;-44
2023/03/11 08:49:05;;;;;;;55.22;34.05;;;;;;;;;;4977623;28;20618;-44
2023/03/11 08:51:33;;;;;;;34.63;22.38;;;;;;;;;;4995444;28;20240;-44
2023/03/11 08:54:01;;;;;;;31.50;20.60;;;;;;;;;;4995658;28;20279;-44
2023/03/11 08:56:28;;;;;;;28.80;19.20;;;;;;;;;;4995016;28;20195;-44
2023/03/11 08:58:55;;;;;;;27.73;19.95;;;;;;;;;;4995460;28;20225;-44
2023/03/11 09:01:23;;;;;;;30.92;20.33;;;;;;;;;;4994937;28;20269;-44
2023/03/11 09:03:50;;;;;;;26.15;19.95;;;;;;;;;;4995168;28;20200;-44
2023/03/11 09:06:18;;;;;;;27.40;17.73;;;;;;;;;;4995238;28;20205;-44
2023/03/11 09:08:47;;;;;;;23.95;17.75;;;;;;;;;;5003800;28;20215;-45
2023/03/11 09:11:15;;;;;;;25.52;18.77;;;;;;;;;;5004566;28;20210;-45
2023/03/11 09:13:43;;;;;;;24.10;17.55;;;;;;;;;;4995552;28;20236;-44
2023/03/11 09:16:20;;;;;;;22.05;16.33;;;;;;;;;;5005152;28;20228;-44
2023/03/11 09:18:48;;;;;;;22.92;16.38;;;;;;;;;;5014766;28;20200;-44
2023/03/11 09:21:16;;;;;;;24.00;17.27;;;;;;;;;;5014227;28;20312;-44
2023/03/11 09:23:43;;;;;;;24.60;16.70;;;;;;;;;;5012119;28;20213;-45
2023/03/11 09:26:11;;;;;;;26.05;17.88;;;;;;;;;;4987849;28;20269;-44
2023/03/11 09:28:40;;;;;;;25.35;15.73;;;;;;;;;;5001588;28;20194;-45
2023/03/11 09:31:08;;;;;;;21.70;17.30;;;;;;;;;;5014047;28;20217;-45
2023/03/11 09:33:40;;;;;;;20.40;12.98;;;;;;;;;;5014655;28;20208;-44
2023/03/11 09:36:11;;;;;;;26.45;17.13;;;;;;;;;;4987869;28;20292;-44
2023/03/11 09:38:39;;;;;;;16.67;12.18;;;;;;;;;;4997446;28;20241;-45
2023/03/11 09:41:48;;;;;;;20.77;13.30;;;;;;;;;;4998016;28;20328;-44
2023/03/11 09:44:40;;;;;;;16.35;12.45;;;;;;;;;;4986397;28;20229;-45
2023/03/11 09:47:31;;;;;;;13.48;9.63;;;;;;;;;;4989998;28;20261;-43
2023/03/11 09:50:10;;;;;;;17.38;11.20;;;;;;;;;;5003227;28;20687;-45
2023/03/11 09:53:13;;;;;;;19.33;15.63;;;;;;;;;;4997595;28;20668;-43
2023/03/11 09:55:43;;;;;;;14.90;11.25;;;;;;;;;;4993554;28;20229;-44
2023/03/11 09:58:14;;;;;;;17.95;12.23;;;;;;;;;;4985516;28;20313;-44
2023/03/11 10:00:42;;;;;;;23.90;18.77;;;;;;;;;;4989034;28;20245;-45
2023/03/11 10:03:28;;;;;;;17.73;14.35;;;;;;;;;;4991611;28;20280;-44
2023/03/11 10:06:02;;;;;;;49.40;21.52;;;;;;;;;;4993465;28;20241;-44
2023/03/11 10:08:56;;;;;;;33.60;17.77;;;;;;;;;;4990055;28;20285;-45
2023/03/11 10:12:01;;;;;;;38.53;31.98;;;;;;;;;;4988405;28;20700;-46
2023/03/11 10:14:43;;;;;;;39.63;17.27;;;;;;;;;;4990716;28;20224;-45
2023/03/11 10:17:17;;;;;;;32.70;17.08;;;;;;;;;;4988236;28;20230;-44
2023/03/11 10:20:08;;;;;;;18.55;14.48;;;;;;;;;;4995069;28;20232;-46
2023/03/11 10:22:38;;;;;;;19.17;13.73;;;;;;;;;;4995942;28;20218;-44
2023/03/11 10:25:16;;;;;;;17.83;13.88;;;;;;;;;;4994229;28;20225;-44
2023/03/11 10:28:12;;;;;;;16.60;12.90;;;;;;;;;;4993011;28;20668;-44
2023/03/11 10:31:02;;;;;;;15.55;12.15;;;;;;;;;;4985654;28;20241;-44
2023/03/11 10:33:43;;;;;;;18.15;13.35;;;;;;;;;;4987210;28;20296;-45
2023/03/11 10:36:22;;;;;;;14.60;10.45;;;;;;;;;;4986834;28;20214;-44
2023/03/11 10:38:51;;;;;;;14.88;11.68;;;;;;;;;;4977203;28;20234;-44
2023/03/11 10:41:33;;;;;;;15.32;11.77;;;;;;;;;;4989029;28;20230;-44
2023/03/11 10:44:15;;;;;;;17.10;10.70;;;;;;;;;;4977329;28;20234;-43
2023/03/11 10:46:42;;;;;;;26.02;12.73;;;;;;;;;;4989384;28;20664;-43
2023/03/11 10:49:19;;;;;;;13.52;10.68;;;;;;;;;;4996018;28;20237;-44
2023/03/11 10:51:48;;;;;;;16.92;12.43;;;;;;;;;;4996192;28;20248;-44
2023/03/11 10:54:38;;;;;;;21.70;15.93;;;;;;;;;;4997320;28;20229;-45
2023/03/11 10:57:21;;;;;;;20.52;16.10;;;;;;;;;;4997074;28;20229;-44
2023/03/11 10:59:51;;;;;;;15.07;10.10;;;;;;;;;;4996917;28;20234;-44
2023/03/11 11:02:39;;;;;;;10.52;8.77;;;;;;;;;;4995259;28;20685;-44
2023/03/11 11:05:16;;;;;;;10.07;8.20;;;;;;;;;;4997348;28;20228;-44
2023/03/11 11:08:03;;;;;;;8.57;7.68;;;;;;;;;;5009546;28;20233;-44
2023/03/11 11:10:32;;;;;;;10.18;7.55;;;;;;;;;;5005022;28;20599;-45
2023/03/11 11:13:02;;;;;;;9.93;8.07;;;;;;;;;;4992426;28;20233;-45
2023/03/11 11:15:35;;;;;;;10.13;7.18;;;;;;;;;;4989509;28;20211;-45
2023/03/11 11:18:05;;;;;;;9.07;6.97;;;;;;;;;;4976075;28;20219;-44
2023/03/11 11:20:33;;;;;;;7.75;6.63;;;;;;;;;;4992865;28;20289;-44
2023/03/11 11:23:01;;;;;;;9.15;7.60;;;;;;;;;;5025862;28;20264;-44
2023/03/11 11:25:32;;;;;;;10.07;6.57;;;;;;;;;;4989805;28;20213;-45
2023/03/11 11:28:17;;;;;;;14.05;8.63;;;;;;;;;;4985719;28;20229;-45
2023/03/11 11:30:58;;;;;;;6.85;4.88;;;;;;;;;;4986377;28;20237;-45
2023/03/11 11:33:27;;;;;;;5.35;4.47;;;;;;;;;;4985885;28;20214;-46
2023/03/11 11:35:57;;;;;;;5.50;3.30;;;;;;;;;;4994971;28;20233;-44
2023/03/11 11:38:26;;;;;;;5.45;3.65;;;;;;;;;;5003313;28;20217;-45
2023/03/11 11:40:55;;;;;;;10.32;5.57;;;;;;;;;;5015290;28;20286;-45
2023/03/11 11:43:38;;;;;;;7.80;4.95;;;;;;;;;;5013471;28;20292;-45
2023/03/11 11:46:14;;;;;;;18.63;9.77;;;;;;;;;;5013299;28;20234;-44
2023/03/11 11:48:56;;;;;;;11.18;4.55;;;;;;;;;;5007846;28;20882;-43
2023/03/11 11:51:34;;;;;;;5.25;3.75;;;;;;;;;;5010876;28;20241;-45
2023/03/11 11:54:05;;;;;;;6.50;4.60;;;;;;;;;;4995890;28;20320;-44
2023/03/11 11:56:33;;;;;;;6.72;5.10;;;;;;;;;;4996280;28;20233;-44
2023/03/11 11:59:00;;;;;;;5.82;4.00;;;;;;;;;;4995831;28;20703;-43
2023/03/11 12:01:55;;;;;;;4.85;3.97;;;;;;;;;;5026917;28;20265;-44
2023/03/11 12:04:31;;;;;;;4.15;3.03;;;;;;;;;;4989736;28;20304;-45
2023/03/11 12:07:41;;;;;;;6.43;3.90;;;;;;;;;;4994524;28;20567;-43
2023/03/11 12:10:21;;;;;;;7.85;3.90;;;;;;;;;;4974585;28;20234;-44
2023/03/11 12:13:24;;;;;;;7.90;3.92;;;;;;;;;;4974235;28;20239;-43
2023/03/11 12:16:33;;;;;;;14.52;6.45;;;;;;;;;;4974052;28;20222;-43
2023/03/11 12:19:06;;;;;;;3.08;1.80;;;;;;;;;;4927924;28;20588;-44
2023/03/11 12:21:52;;;;;;;5.43;2.93;;;;;;;;;;4975134;28;20239;-43
2023/03/11 12:24:47;;;;;;;4.93;3.80;;;;;;;;;;4973707;28;20223;-43
2023/03/11 12:27:25;;;;;;;16.30;10.30;;;;;;;;;;4974320;28;20712;-44
2023/03/11 12:29:57;;;;;;;5.78;3.20;;;;;;;;;;4974018;28;20615;-44
2023/03/11 12:32:35;;;;;;;3.10;2.20;;;;;;;;;;4974209;28;20255;-44
2023/03/11 12:35:17;;;;;;;2.60;1.97;;;;;;;;;;4972534;28;20245;-44
2023/03/11 12:37:44;;;;;;;3.80;2.40;;;;;;;;;;4945947;28;20331;-44
2023/03/11 12:40:43;;;;;;;7.20;3.95;;;;;;;;;;4959352;28;20288;-44
2023/03/11 12:43:34;;;;;;;7.22;3.55;;;;;;;;;;4975343;28;20226;-45
2023/03/11 12:46:03;;;;;;;9.10;4.07;;;;;;;;;;4975352;28;20223;-44
2023/03/11 12:48:34;;;;;;;4.23;3.10;;;;;;;;;;4974617;28;20681;-44
2023/03/11 12:51:02;;;;;;;3.57;2.83;;;;;;;;;;4980929;28;20229;-43
2023/03/11 12:53:46;;;;;;;3.77;3.13;;;;;;;;;;4994119;28;20232;-45
2023/03/11 12:56:33;;;;;;;7.43;5.70;;;;;;;;;;4995237;28;20225;-44
2023/03/11 12:59:13;;;;;;;6.40;3.90;;;;;;;;;;4994503;28;20672;-45
2023/03/11 13:02:00;;;;;;;8.80;5.43;;;;;;;;;;4982466;28;20246;-43
2023/03/11 13:04:52;;;;;;;6.20;4.23;;;;;;;;;;4983192;28;20284;-45
2023/03/11 13:07:40;;;;;;;4.53;3.13;;;;;;;;;;4994882;28;20234;-44
2023/03/11 13:10:19;;;;;;;6.93;3.53;;;;;;;;;;4993580;28;20240;-45
2023/03/11 13:12:51;;;;;;;4.60;3.33;;;;;;;;;;4993250;28;20230;-46
2023/03/11 13:15:20;;;;;;;4.43;3.30;;;;;;;;;;4993654;28;20316;-44
2023/03/11 13:18:13;;;;;;;8.55;4.38;;;;;;;;;;4994091;28;20257;-44
2023/03/11 13:20:40;;;;;;;4.80;3.50;;;;;;;;;;4993846;28;20672;-43
2023/03/11 13:23:10;;;;;;;3.53;3.20;;;;;;;;;;4994912;28;20561;-41
2023/03/11 13:25:41;;;;;;;6.00;4.27;;;;;;;;;;4994428;28;20312;-41
2023/03/11 13:28:34;;;;;;;7.90;4.90;;;;;;;;;;4994511;28;20222;-42
2023/03/11 13:31:38;;;;;;;5.37;4.43;;;;;;;;;;4993375;28;20226;-46
2023/03/11 13:34:05;;;;;;;4.23;3.27;;;;;;;;;;4993921;28;20237;-41
2023/03/11 13:36:50;;;;;;;4.43;3.37;;;;;;;;;;4992080;28;20224;-41
2023/03/11 13:39:19;;;;;;;7.93;4.70;;;;;;;;;;4994470;28;20609;-43
2023/03/11 13:41:46;;;;;;;5.97;3.63;;;;;;;;;;4987848;28;20237;-42
2023/03/11 13:44:23;;;;;;;10.30;4.73;;;;;;;;;;4986495;28;20214;-42
2023/03/11 13:47:06;;;;;;;13.30;7.63;;;;;;;;;;4982492;28;20246;-42
2023/03/11 13:49:49;;;;;;;15.60;8.93;;;;;;;;;;4983108;28;20226;-41
2023/03/11 13:52:27;;;;;;;18.27;10.97;;;;;;;;;;4988319;28;20241;-40
2023/03/11 13:55:18;;;;;;;17.37;10.70;;;;;;;;;;4981784;28;20660;-43
2023/03/11 13:57:53;;;;;;;10.77;6.17;;;;;;;;;;4974380;28;20246;-42
2023/03/11 14:00:23;;;;;;;12.77;5.73;;;;;;;;;;4974411;28;20226;-42
2023/03/11 14:02:54;;;;;;;9.50;6.03;;;;;;;;;;4974694;28;20326;-42
2023/03/11 14:05:26;;;;;;;10.63;7.10;;;;;;;;;;4994071;28;20229;-41
2023/03/11 14:07:53;;;;;;;8.97;5.47;;;;;;;;;;4987176;28;20233;-40
2023/03/11 14:10:29;;;;;;;10.87;6.33;;;;;;;;;;4974663;28;20238;-42
2023/03/11 14:13:17;;;;;;;8.17;5.60;;;;;;;;;;4973869;28;20740;-41
2023/03/11 14:15:57;;;;;;;6.23;4.30;;;;;;;;;;4974447;28;20331;-41
2023/03/11 14:18:38;;;;;;;5.77;4.27;;;;;;;;;;4988591;28;20668;-46
2023/03/11 14:21:14;;;;;;;5.47;4.20;;;;;;;;;;4979078;28;20226;-44
2023/03/11 14:23:46;;;;;;;4.23;3.80;;;;;;;;;;4995045;28;20229;-44
2023/03/11 14:26:21;;;;;;;5.93;4.00;;;;;;;;;;4996209;28;20230;-45
2023/03/11 14:28:50;;;;;;;7.50;5.13;;;;;;;;;;4977064;28;20241;-43
2023/03/11 14:31:30;;;;;;;5.27;4.47;;;;;;;;;;4978077;28;20677;-42
2023/03/11 14:34:03;;;;;;;4.00;3.60;;;;;;;;;;4986225;28;20214;-43
2023/03/11 14:36:39;;;;;;;4.83;3.93;;;;;;;;;;4978962;28;20241;-44
2023/03/11 14:39:27;;;;;;;5.53;4.30;;;;;;;;;;4977972;28;20261;-44
2023/03/11 14:42:12;;;;;;;6.10;4.97;;;;;;;;;;4977995;28;20261;-43
2023/03/11 14:44:40;;;;;;;6.03;5.20;;;;;;;;;;4976829;28;20306;-43
2023/03/11 14:47:27;;;;;;;8.67;5.53;;;;;;;;;;4977182;28;20245;-44
2023/03/11 14:49:54;;;;;;;7.70;6.00;;;;;;;;;;4976418;28;20738;-43
2023/03/11 14:52:36;;;;;;;8.30;6.97;;;;;;;;;;4993536;28;20222;-43